sensor_id;sensor_type;location;lat;lon;timestamp;P1;durP1;ratioP1;P2;durP2;ratioP2
64033;SDS011;50280;49.864;8.638;2023-02-01T00:00:12;9.48;;;5.10;;
64033;SDS011;50280;49.864;8.638;2023-02-01T00:02:44;8.65;;;5.00;;
64033;SDS011;50280;49.864;8.638;2023-02-01T00:05:17;10.48;;;4.93;;
64033;SDS011;50280;49.864;8.638;2023-02-01T00:07:50;9.25;;;5.28;;
64033;SDS011;50280;49.864;8.638;2023-02-01T00:10:22;10.38;;;5.80;;
64033;SDS011;50280;49.864;8.638;2023-02-01T00:12:55;12.75;;;5.53;;
64033;SDS011;50280;49.864;8.638;2023-02-01T00:15:28;10.00;;;5.78;;
64033;SDS011;50280;49.864;8.638;2023-02-01T00:18:01;11.57;;;5.43;;
64033;SDS011;50280;49.864;8.638;2023-02-01T00:20:33;9.93;;;5.82;;
64033;SDS011;50280;49.864;8.638;2023-02-01T00:23:06;9.63;;;5.72;;
64033;SDS011;50280;49.864;8.638;2023-02-01T00:25:38;8.45;;;5.30;;
64033;SDS011;50280;49.864;8.638;2023-02-01T00:28:10;9.93;;;5.50;;
64033;SDS011;50280;49.864;8.638;2023-02-01T00:30:44;10.95;;;6.15;;
64033;SDS011;50280;49.864;8.638;2023-02-01T00:33:17;10.85;;;5.45;;
64033;SDS011;50280;49.864;8.638;2023-02-01T00:35:49;14.48;;;6.45;;
64033;SDS011;50280;49.864;8.638;2023-02-01T00:38:22;9.15;;;5.63;;
64033;SDS011;50280;49.864;8.638;2023-02-01T00:40:54;12.15;;;6.25;;
64033;SDS011;50280;49.864;8.638;2023-02-01T00:43:34;13.07;;;5.95;;
64033;SDS011;50280;49.864;8.638;2023-02-01T00:46:09;11.23;;;5.82;;
64033;SDS011;50280;49.864;8.638;2023-02-01T00:48:44;11.93;;;5.95;;
64033;SDS011;50280;49.864;8.638;2023-02-01T00:51:18;12.80;;;6.43;;
64033;SDS011;50280;49.864;8.638;2023-02-01T00:53:53;11.23;;;6.05;;
64033;SDS011;50280;49.864;8.638;2023-02-01T00:56:27;13.35;;;6.40;;
64033;SDS011;50280;49.864;8.638;2023-02-01T00:58:59;11.55;;;6.50;;
64033;SDS011;50280;49.864;8.638;2023-02-01T01:01:33;9.00;;;5.65;;
64033;SDS011;50280;49.864;8.638;2023-02-01T01:04:05;11.35;;;5.93;;
64033;SDS011;50280;49.864;8.638;2023-02-01T01:06:38;12.63;;;5.97;;
64033;SDS011;50280;49.864;8.638;2023-02-01T01:09:10;11.55;;;5.82;;
64033;SDS011;50280;49.864;8.638;2023-02-01T01:11:43;11.57;;;6.38;;
64033;SDS011;50280;49.864;8.638;2023-02-01T01:14:15;13.00;;;6.28;;
64033;SDS011;50280;49.864;8.638;2023-02-01T01:16:49;11.60;;;6.07;;
64033;SDS011;50280;49.864;8.638;2023-02-01T01:19:22;12.10;;;5.80;;
64033;SDS011;50280;49.864;8.638;2023-02-01T01:21:54;10.20;;;6.20;;
64033;SDS011;50280;49.864;8.638;2023-02-01T01:24:26;12.63;;;6.35;;
64033;SDS011;50280;49.864;8.638;2023-02-01T01:26:59;10.52;;;5.72;;
64033;SDS011;50280;49.864;8.638;2023-02-01T01:29:31;12.13;;;6.55;;
64033;SDS011;50280;49.864;8.638;2023-02-01T01:32:05;11.80;;;6.18;;
64033;SDS011;50280;49.864;8.638;2023-02-01T01:34:38;9.18;;;6.18;;
64033;SDS011;50280;49.864;8.638;2023-02-01T01:37:10;13.13;;;5.97;;
64033;SDS011;50280;49.864;8.638;2023-02-01T01:39:43;10.00;;;5.82;;
64033;SDS011;50280;49.864;8.638;2023-02-01T01:42:15;10.18;;;6.22;;
64033;SDS011;50280;49.864;8.638;2023-02-01T01:44:55;10.43;;;6.60;;
64033;SDS011;50280;49.864;8.638;2023-02-01T01:47:35;16.33;;;6.50;;
64033;SDS011;50280;49.864;8.638;2023-02-01T01:50:17;12.65;;;6.38;;
64033;SDS011;50280;49.864;8.638;2023-02-01T01:52:58;12.70;;;6.22;;
64033;SDS011;50280;49.864;8.638;2023-02-01T01:55:38;16.90;;;7.32;;
64033;SDS011;50280;49.864;8.638;2023-02-01T01:58:18;13.25;;;6.80;;
64033;SDS011;50280;49.864;8.638;2023-02-01T02:03:32;11.43;;;6.18;;
64033;SDS011;50280;49.864;8.638;2023-02-01T02:06:11;10.73;;;6.00;;
64033;SDS011;50280;49.864;8.638;2023-02-01T02:09:06;10.15;;;5.85;;
64033;SDS011;50280;49.864;8.638;2023-02-01T02:11:38;12.00;;;6.65;;
64033;SDS011;50280;49.864;8.638;2023-02-01T02:14:11;12.45;;;6.90;;
64033;SDS011;50280;49.864;8.638;2023-02-01T02:16:54;12.25;;;7.00;;
64033;SDS011;50280;49.864;8.638;2023-02-01T02:23:51;13.65;;;7.22;;
64033;SDS011;50280;49.864;8.638;2023-02-01T02:27:07;13.00;;;6.82;;
64033;SDS011;50280;49.864;8.638;2023-02-01T02:33:43;14.93;;;6.72;;
64033;SDS011;50280;49.864;8.638;2023-02-01T02:36:39;11.90;;;6.35;;
64033;SDS011;50280;49.864;8.638;2023-02-01T02:39:31;14.15;;;6.60;;
64033;SDS011;50280;49.864;8.638;2023-02-01T02:42:22;14.10;;;6.43;;
64033;SDS011;50280;49.864;8.638;2023-02-01T02:45:09;15.30;;;6.80;;
64033;SDS011;50280;49.864;8.638;2023-02-01T02:47:53;15.55;;;7.05;;
64033;SDS011;50280;49.864;8.638;2023-02-01T02:50:42;13.27;;;7.00;;
64033;SDS011;50280;49.864;8.638;2023-02-01T02:53:27;12.80;;;6.55;;
64033;SDS011;50280;49.864;8.638;2023-02-01T02:56:10;14.98;;;7.22;;
64033;SDS011;50280;49.864;8.638;2023-02-01T02:58:46;17.52;;;7.20;;
64033;SDS011;50280;49.864;8.638;2023-02-01T03:01:20;15.70;;;7.72;;
64033;SDS011;50280;49.864;8.638;2023-02-01T03:03:53;16.17;;;7.15;;
64033;SDS011;50280;49.864;8.638;2023-02-01T03:06:27;15.57;;;7.70;;
64033;SDS011;50280;49.864;8.638;2023-02-01T03:09:01;19.10;;;8.77;;
64033;SDS011;50280;49.864;8.638;2023-02-01T03:11:44;16.63;;;8.95;;
64033;SDS011;50280;49.864;8.638;2023-02-01T03:14:30;20.70;;;8.02;;
64033;SDS011;50280;49.864;8.638;2023-02-01T03:17:14;17.70;;;8.48;;
64033;SDS011;50280;49.864;8.638;2023-02-01T03:19:53;18.75;;;8.52;;
64033;SDS011;50280;49.864;8.638;2023-02-01T03:22:38;18.05;;;7.82;;
64033;SDS011;50280;49.864;8.638;2023-02-01T03:25:17;17.25;;;7.15;;
64033;SDS011;50280;49.864;8.638;2023-02-01T03:27:59;17.45;;;7.90;;
64033;SDS011;50280;49.864;8.638;2023-02-01T03:30:40;18.50;;;7.95;;
64033;SDS011;50280;49.864;8.638;2023-02-01T03:33:16;16.23;;;7.75;;
64033;SDS011;50280;49.864;8.638;2023-02-01T03:35:57;12.88;;;7.00;;
64033;SDS011;50280;49.864;8.638;2023-02-01T03:38:49;13.55;;;6.55;;
64033;SDS011;50280;49.864;8.638;2023-02-01T03:41:35;11.95;;;6.10;;
64033;SDS011;50280;49.864;8.638;2023-02-01T03:44:15;12.77;;;6.43;;
64033;SDS011;50280;49.864;8.638;2023-02-01T03:49:33;11.85;;;5.88;;
64033;SDS011;50280;49.864;8.638;2023-02-01T03:52:13;14.40;;;6.45;;
64033;SDS011;50280;49.864;8.638;2023-02-01T03:54:55;11.95;;;5.95;;
64033;SDS011;50280;49.864;8.638;2023-02-01T03:57:31;12.70;;;6.65;;
64033;SDS011;50280;49.864;8.638;2023-02-01T04:00:15;13.77;;;6.90;;
64033;SDS011;50280;49.864;8.638;2023-02-01T04:02:53;13.70;;;7.25;;
64033;SDS011;50280;49.864;8.638;2023-02-01T04:05:26;13.23;;;6.18;;
64033;SDS011;50280;49.864;8.638;2023-02-01T04:07:59;16.73;;;7.38;;
64033;SDS011;50280;49.864;8.638;2023-02-01T04:10:33;14.30;;;6.45;;
64033;SDS011;50280;49.864;8.638;2023-02-01T04:13:05;15.43;;;6.88;;
64033;SDS011;50280;49.864;8.638;2023-02-01T04:15:38;16.00;;;6.45;;
64033;SDS011;50280;49.864;8.638;2023-02-01T04:18:11;15.57;;;7.10;;
64033;SDS011;50280;49.864;8.638;2023-02-01T04:20:43;16.70;;;7.22;;
64033;SDS011;50280;49.864;8.638;2023-02-01T04:23:15;13.90;;;6.85;;
64033;SDS011;50280;49.864;8.638;2023-02-01T04:25:49;16.02;;;6.45;;
64033;SDS011;50280;49.864;8.638;2023-02-01T04:28:21;15.35;;;6.97;;
64033;SDS011;50280;49.864;8.638;2023-02-01T04:30:54;15.65;;;5.82;;
64033;SDS011;50280;49.864;8.638;2023-02-01T04:33:27;15.07;;;6.50;;
64033;SDS011;50280;49.864;8.638;2023-02-01T04:35:59;14.85;;;6.07;;
64033;SDS011;50280;49.864;8.638;2023-02-01T04:38:32;12.50;;;6.45;;
64033;SDS011;50280;49.864;8.638;2023-02-01T04:41:05;12.13;;;6.15;;
64033;SDS011;50280;49.864;8.638;2023-02-01T04:43:38;15.55;;;6.05;;
64033;SDS011;50280;49.864;8.638;2023-02-01T04:46:10;10.93;;;5.75;;
64033;SDS011;50280;49.864;8.638;2023-02-01T04:48:43;14.88;;;5.28;;
64033;SDS011;50280;49.864;8.638;2023-02-01T04:51:15;12.10;;;5.00;;
64033;SDS011;50280;49.864;8.638;2023-02-01T04:53:48;11.15;;;5.45;;
64033;SDS011;50280;49.864;8.638;2023-02-01T04:56:21;10.40;;;5.13;;
64033;SDS011;50280;49.864;8.638;2023-02-01T04:58:54;11.77;;;4.60;;
64033;SDS011;50280;49.864;8.638;2023-02-01T05:01:26;10.38;;;4.10;;
64033;SDS011;50280;49.864;8.638;2023-02-01T05:03:59;7.30;;;4.47;;
64033;SDS011;50280;49.864;8.638;2023-02-01T05:06:31;7.80;;;4.10;;
64033;SDS011;50280;49.864;8.638;2023-02-01T05:09:04;9.75;;;3.80;;
64033;SDS011;50280;49.864;8.638;2023-02-01T05:11:38;10.13;;;3.78;;
64033;SDS011;50280;49.864;8.638;2023-02-01T05:14:11;8.02;;;3.40;;
64033;SDS011;50280;49.864;8.638;2023-02-01T05:16:43;7.85;;;3.00;;
64033;SDS011;50280;49.864;8.638;2023-02-01T05:19:16;5.80;;;3.00;;
64033;SDS011;50280;49.864;8.638;2023-02-01T05:21:49;8.23;;;3.33;;
64033;SDS011;50280;49.864;8.638;2023-02-01T05:24:21;6.70;;;3.00;;
64033;SDS011;50280;49.864;8.638;2023-02-01T05:26:55;3.67;;;2.33;;
64033;SDS011;50280;49.864;8.638;2023-02-01T05:29:27;6.72;;;2.53;;
64033;SDS011;50280;49.864;8.638;2023-02-01T05:32:00;8.15;;;2.75;;
64033;SDS011;50280;49.864;8.638;2023-02-01T05:34:33;5.88;;;3.13;;
64033;SDS011;50280;49.864;8.638;2023-02-01T05:37:05;6.22;;;2.72;;
64033;SDS011;50280;49.864;8.638;2023-02-01T05:39:37;7.70;;;2.70;;
64033;SDS011;50280;49.864;8.638;2023-02-01T05:42:11;5.57;;;2.45;;
64033;SDS011;50280;49.864;8.638;2023-02-01T05:44:44;3.80;;;2.00;;
64033;SDS011;50280;49.864;8.638;2023-02-01T05:47:16;7.75;;;2.65;;
64033;SDS011;50280;49.864;8.638;2023-02-01T05:49:49;7.63;;;2.40;;
64033;SDS011;50280;49.864;8.638;2023-02-01T05:52:21;7.63;;;2.40;;
64033;SDS011;50280;49.864;8.638;2023-02-01T05:54:54;6.43;;;1.92;;
64033;SDS011;50280;49.864;8.638;2023-02-01T05:57:28;8.23;;;1.98;;
64033;SDS011;50280;49.864;8.638;2023-02-01T06:00:00;9.18;;;2.33;;
64033;SDS011;50280;49.864;8.638;2023-02-01T06:02:35;8.00;;;2.33;;
64033;SDS011;50280;49.864;8.638;2023-02-01T06:05:08;4.55;;;2.00;;
64033;SDS011;50280;49.864;8.638;2023-02-01T06:07:40;5.85;;;2.17;;
64033;SDS011;50280;49.864;8.638;2023-02-01T06:10:13;6.55;;;1.98;;
64033;SDS011;50280;49.864;8.638;2023-02-01T06:12:47;5.07;;;1.95;;
64033;SDS011;50280;49.864;8.638;2023-02-01T06:15:19;4.32;;;1.75;;
64033;SDS011;50280;49.864;8.638;2023-02-01T06:17:52;5.20;;;1.90;;
64033;SDS011;50280;49.864;8.638;2023-02-01T06:20:24;5.13;;;2.13;;
64033;SDS011;50280;49.864;8.638;2023-02-01T06:22:57;5.57;;;1.73;;
64033;SDS011;50280;49.864;8.638;2023-02-01T06:25:29;5.53;;;2.10;;
64033;SDS011;50280;49.864;8.638;2023-02-01T06:28:03;5.38;;;2.00;;
64033;SDS011;50280;49.864;8.638;2023-02-01T06:30:36;6.57;;;1.80;;
64033;SDS011;50280;49.864;8.638;2023-02-01T06:33:08;3.70;;;1.75;;
64033;SDS011;50280;49.864;8.638;2023-02-01T06:35:41;4.53;;;1.92;;
64033;SDS011;50280;49.864;8.638;2023-02-01T06:38:14;7.18;;;2.05;;
64033;SDS011;50280;49.864;8.638;2023-02-01T06:40:51;5.78;;;2.63;;
64033;SDS011;50280;49.864;8.638;2023-02-01T06:43:27;8.27;;;2.50;;
64033;SDS011;50280;49.864;8.638;2023-02-01T06:46:00;7.18;;;2.95;;
64033;SDS011;50280;49.864;8.638;2023-02-01T06:48:36;7.10;;;2.72;;
64033;SDS011;50280;49.864;8.638;2023-02-01T06:51:17;5.13;;;2.58;;
64033;SDS011;50280;49.864;8.638;2023-02-01T06:53:53;5.70;;;2.40;;
64033;SDS011;50280;49.864;8.638;2023-02-01T06:56:26;7.13;;;2.58;;
64033;SDS011;50280;49.864;8.638;2023-02-01T06:59:01;7.95;;;2.25;;
64033;SDS011;50280;49.864;8.638;2023-02-01T07:01:36;6.00;;;2.20;;
64033;SDS011;50280;49.864;8.638;2023-02-01T07:04:09;5.30;;;2.10;;
64033;SDS011;50280;49.864;8.638;2023-02-01T07:06:43;7.63;;;2.55;;
64033;SDS011;50280;49.864;8.638;2023-02-01T07:09:15;6.57;;;2.45;;
64033;SDS011;50280;49.864;8.638;2023-02-01T07:11:48;7.47;;;2.67;;
64033;SDS011;50280;49.864;8.638;2023-02-01T07:14:22;6.88;;;2.50;;
64033;SDS011;50280;49.864;8.638;2023-02-01T07:16:54;6.60;;;2.70;;
64033;SDS011;50280;49.864;8.638;2023-02-01T07:19:26;6.72;;;1.95;;
64033;SDS011;50280;49.864;8.638;2023-02-01T07:21:59;7.72;;;2.40;;
64033;SDS011;50280;49.864;8.638;2023-02-01T07:24:32;5.55;;;2.58;;
64033;SDS011;50280;49.864;8.638;2023-02-01T07:27:05;7.22;;;2.60;;
64033;SDS011;50280;49.864;8.638;2023-02-01T07:29:39;5.53;;;2.55;;
64033;SDS011;50280;49.864;8.638;2023-02-01T07:32:11;8.38;;;2.90;;
64033;SDS011;50280;49.864;8.638;2023-02-01T07:34:44;7.60;;;2.67;;
64033;SDS011;50280;49.864;8.638;2023-02-01T07:37:17;11.40;;;3.03;;
64033;SDS011;50280;49.864;8.638;2023-02-01T07:39:49;5.85;;;2.88;;
64033;SDS011;50280;49.864;8.638;2023-02-01T07:42:22;8.82;;;2.90;;
64033;SDS011;50280;49.864;8.638;2023-02-01T07:44:56;8.02;;;3.05;;
64033;SDS011;50280;49.864;8.638;2023-02-01T07:47:28;6.95;;;3.28;;
64033;SDS011;50280;49.864;8.638;2023-02-01T07:50:01;13.65;;;4.07;;
64033;SDS011;50280;49.864;8.638;2023-02-01T07:52:34;10.50;;;3.90;;
64033;SDS011;50280;49.864;8.638;2023-02-01T07:55:07;7.90;;;4.25;;
64033;SDS011;50280;49.864;8.638;2023-02-01T07:57:41;13.30;;;4.00;;
64033;SDS011;50280;49.864;8.638;2023-02-01T08:00:15;12.05;;;3.90;;
64033;SDS011;50280;49.864;8.638;2023-02-01T08:02:50;7.97;;;4.35;;
64033;SDS011;50280;49.864;8.638;2023-02-01T08:05:23;13.73;;;5.13;;
64033;SDS011;50280;49.864;8.638;2023-02-01T08:07:55;12.60;;;5.65;;
64033;SDS011;50280;49.864;8.638;2023-02-01T08:10:28;8.63;;;5.25;;
64033;SDS011;50280;49.864;8.638;2023-02-01T08:13:00;11.05;;;4.85;;
64033;SDS011;50280;49.864;8.638;2023-02-01T08:15:35;13.10;;;5.20;;
64033;SDS011;50280;49.864;8.638;2023-02-01T08:18:08;12.25;;;5.32;;
64033;SDS011;50280;49.864;8.638;2023-02-01T08:20:40;13.10;;;4.78;;
64033;SDS011;50280;49.864;8.638;2023-02-01T08:23:13;11.25;;;4.47;;
64033;SDS011;50280;49.864;8.638;2023-02-01T08:25:46;10.77;;;4.70;;
64033;SDS011;50280;49.864;8.638;2023-02-01T08:28:19;11.00;;;4.28;;
64033;SDS011;50280;49.864;8.638;2023-02-01T08:30:53;14.40;;;4.50;;
64033;SDS011;50280;49.864;8.638;2023-02-01T08:33:25;12.70;;;4.10;;
64033;SDS011;50280;49.864;8.638;2023-02-01T08:35:59;10.77;;;4.15;;
64033;SDS011;50280;49.864;8.638;2023-02-01T08:38:34;9.93;;;4.40;;
64033;SDS011;50280;49.864;8.638;2023-02-01T08:41:09;11.32;;;3.83;;
64033;SDS011;50280;49.864;8.638;2023-02-01T08:43:45;11.93;;;4.20;;
64033;SDS011;50280;49.864;8.638;2023-02-01T08:46:20;9.60;;;4.05;;
64033;SDS011;50280;49.864;8.638;2023-02-01T08:48:53;11.13;;;4.13;;
64033;SDS011;50280;49.864;8.638;2023-02-01T08:51:26;11.98;;;4.20;;
64033;SDS011;50280;49.864;8.638;2023-02-01T08:53:58;8.98;;;3.40;;
64033;SDS011;50280;49.864;8.638;2023-02-01T08:56:33;10.27;;;3.60;;
64033;SDS011;50280;49.864;8.638;2023-02-01T08:59:06;10.70;;;3.67;;
64033;SDS011;50280;49.864;8.638;2023-02-01T09:01:39;9.15;;;3.45;;
64033;SDS011;50280;49.864;8.638;2023-02-01T09:04:12;9.95;;;3.50;;
64033;SDS011;50280;49.864;8.638;2023-02-01T09:06:44;10.82;;;3.88;;
64033;SDS011;50280;49.864;8.638;2023-02-01T09:09:17;12.43;;;3.45;;
64033;SDS011;50280;49.864;8.638;2023-02-01T09:11:50;11.55;;;3.80;;
64033;SDS011;50280;49.864;8.638;2023-02-01T09:14:22;11.30;;;3.75;;
64033;SDS011;50280;49.864;8.638;2023-02-01T09:16:56;11.85;;;3.75;;
64033;SDS011;50280;49.864;8.638;2023-02-01T09:19:29;10.05;;;3.95;;
64033;SDS011;50280;49.864;8.638;2023-02-01T09:22:01;8.60;;;3.35;;
64033;SDS011;50280;49.864;8.638;2023-02-01T09:24:33;11.52;;;3.15;;
64033;SDS011;50280;49.864;8.638;2023-02-01T09:27:06;11.02;;;2.90;;
64033;SDS011;50280;49.864;8.638;2023-02-01T09:29:38;12.13;;;2.83;;
64033;SDS011;50280;49.864;8.638;2023-02-01T09:32:12;12.27;;;2.78;;
64033;SDS011;50280;49.864;8.638;2023-02-01T09:34:45;8.57;;;2.40;;
64033;SDS011;50280;49.864;8.638;2023-02-01T09:37:17;8.65;;;2.60;;
64033;SDS011;50280;49.864;8.638;2023-02-01T09:39:51;12.05;;;2.63;;
64033;SDS011;50280;49.864;8.638;2023-02-01T09:42:32;7.93;;;2.20;;
64033;SDS011;50280;49.864;8.638;2023-02-01T09:45:50;10.27;;;2.33;;
64033;SDS011;50280;49.864;8.638;2023-02-01T09:48:49;7.32;;;2.13;;
64033;SDS011;50280;49.864;8.638;2023-02-01T09:51:29;10.20;;;2.35;;
64033;SDS011;50280;49.864;8.638;2023-02-01T09:54:11;7.60;;;2.28;;
64033;SDS011;50280;49.864;8.638;2023-02-01T09:56:51;11.68;;;2.65;;
64033;SDS011;50280;49.864;8.638;2023-02-01T09:59:37;8.85;;;2.08;;
64033;SDS011;50280;49.864;8.638;2023-02-01T10:02:16;8.52;;;2.03;;
64033;SDS011;50280;49.864;8.638;2023-02-01T10:04:57;10.65;;;2.13;;
64033;SDS011;50280;49.864;8.638;2023-02-01T10:07:34;10.23;;;1.80;;
64033;SDS011;50280;49.864;8.638;2023-02-01T10:10:27;13.88;;;2.58;;
64033;SDS011;50280;49.864;8.638;2023-02-01T10:13:15;8.52;;;2.42;;
64033;SDS011;50280;49.864;8.638;2023-02-01T10:16:13;11.25;;;2.55;;
64033;SDS011;50280;49.864;8.638;2023-02-01T10:19:21;7.43;;;1.90;;
64033;SDS011;50280;49.864;8.638;2023-02-01T10:22:19;5.90;;;2.05;;
64033;SDS011;50280;49.864;8.638;2023-02-01T10:25:13;8.93;;;2.13;;
64033;SDS011;50280;49.864;8.638;2023-02-01T10:27:59;6.78;;;2.00;;
64033;SDS011;50280;49.864;8.638;2023-02-01T10:30:44;10.55;;;2.42;;
64033;SDS011;50280;49.864;8.638;2023-02-01T10:33:22;10.48;;;2.58;;
64033;SDS011;50280;49.864;8.638;2023-02-01T10:35:59;10.45;;;2.25;;
64033;SDS011;50280;49.864;8.638;2023-02-01T10:38:46;8.65;;;1.90;;
64033;SDS011;50280;49.864;8.638;2023-02-01T10:41:20;11.02;;;2.38;;
64033;SDS011;50280;49.864;8.638;2023-02-01T10:44:02;10.93;;;3.15;;
64033;SDS011;50280;49.864;8.638;2023-02-01T10:46:42;13.15;;;2.65;;
64033;SDS011;50280;49.864;8.638;2023-02-01T10:49:16;11.95;;;2.47;;
64033;SDS011;50280;49.864;8.638;2023-02-01T10:52:02;10.38;;;2.38;;
64033;SDS011;50280;49.864;8.638;2023-02-01T10:54:48;12.07;;;2.80;;
64033;SDS011;50280;49.864;8.638;2023-02-01T10:57:22;9.43;;;3.25;;
64033;SDS011;50280;49.864;8.638;2023-02-01T10:59:57;8.10;;;2.30;;
64033;SDS011;50280;49.864;8.638;2023-02-01T11:02:35;6.10;;;1.95;;
64033;SDS011;50280;49.864;8.638;2023-02-01T11:05:08;6.75;;;2.58;;
64033;SDS011;50280;49.864;8.638;2023-02-01T11:07:46;11.73;;;2.42;;
64033;SDS011;50280;49.864;8.638;2023-02-01T11:10:36;7.32;;;2.63;;
64033;SDS011;50280;49.864;8.638;2023-02-01T11:13:13;9.35;;;2.50;;
64033;SDS011;50280;49.864;8.638;2023-02-01T11:15:54;11.57;;;2.80;;
64033;SDS011;50280;49.864;8.638;2023-02-01T11:18:29;11.32;;;3.13;;
64033;SDS011;50280;49.864;8.638;2023-02-01T11:21:08;10.85;;;2.10;;
64033;SDS011;50280;49.864;8.638;2023-02-01T11:23:43;7.22;;;2.20;;
64033;SDS011;50280;49.864;8.638;2023-02-01T11:26:21;7.20;;;1.90;;
64033;SDS011;50280;49.864;8.638;2023-02-01T11:28:58;11.32;;;2.53;;
64033;SDS011;50280;49.864;8.638;2023-02-01T11:31:42;11.45;;;2.42;;
64033;SDS011;50280;49.864;8.638;2023-02-01T11:34:17;11.20;;;2.80;;
64033;SDS011;50280;49.864;8.638;2023-02-01T11:36:57;9.68;;;2.58;;
64033;SDS011;50280;49.864;8.638;2023-02-01T11:39:34;12.18;;;2.85;;
64033;SDS011;50280;49.864;8.638;2023-02-01T11:42:13;10.00;;;2.38;;
64033;SDS011;50280;49.864;8.638;2023-02-01T11:44:48;9.57;;;1.98;;
64033;SDS011;50280;49.864;8.638;2023-02-01T11:47:22;6.38;;;2.50;;
64033;SDS011;50280;49.864;8.638;2023-02-01T11:49:59;8.70;;;2.15;;
64033;SDS011;50280;49.864;8.638;2023-02-01T11:52:48;9.55;;;2.65;;
64033;SDS011;50280;49.864;8.638;2023-02-01T11:55:53;11.68;;;2.20;;
64033;SDS011;50280;49.864;8.638;2023-02-01T11:58:56;7.43;;;1.50;;
64033;SDS011;50280;49.864;8.638;2023-02-01T12:02:20;9.98;;;1.83;;
64033;SDS011;50280;49.864;8.638;2023-02-01T12:05:53;9.10;;;1.60;;
64033;SDS011;50280;49.864;8.638;2023-02-01T12:08:48;11.68;;;2.28;;
64033;SDS011;50280;49.864;8.638;2023-02-01T12:11:56;7.68;;;1.67;;
64033;SDS011;50280;49.864;8.638;2023-02-01T12:14:59;13.18;;;2.45;;
64033;SDS011;50280;49.864;8.638;2023-02-01T12:18:01;15.55;;;2.38;;
64033;SDS011;50280;49.864;8.638;2023-02-01T12:21:22;9.70;;;2.28;;
64033;SDS011;50280;49.864;8.638;2023-02-01T12:24:35;8.18;;;2.28;;
64033;SDS011;50280;49.864;8.638;2023-02-01T12:28:04;7.68;;;2.13;;
64033;SDS011;50280;49.864;8.638;2023-02-01T12:31:21;11.68;;;2.63;;
64033;SDS011;50280;49.864;8.638;2023-02-01T12:34:28;8.00;;;1.90;;
64033;SDS011;50280;49.864;8.638;2023-02-01T12:37:41;12.05;;;2.28;;
64033;SDS011;50280;49.864;8.638;2023-02-01T12:40:42;6.90;;;1.75;;
64033;SDS011;50280;49.864;8.638;2023-02-01T12:43:38;10.27;;;1.90;;
64033;SDS011;50280;49.864;8.638;2023-02-01T12:46:21;8.45;;;1.90;;
64033;SDS011;50280;49.864;8.638;2023-02-01T12:49:04;12.63;;;1.92;;
64033;SDS011;50280;49.864;8.638;2023-02-01T12:51:48;9.30;;;2.08;;
64033;SDS011;50280;49.864;8.638;2023-02-01T12:54:32;7.80;;;1.67;;
64033;SDS011;50280;49.864;8.638;2023-02-01T12:57:18;9.60;;;1.90;;
64033;SDS011;50280;49.864;8.638;2023-02-01T13:00:06;6.60;;;2.00;;
64033;SDS011;50280;49.864;8.638;2023-02-01T13:02:59;7.65;;;2.33;;
64033;SDS011;50280;49.864;8.638;2023-02-01T13:05:59;8.10;;;2.10;;
64033;SDS011;50280;49.864;8.638;2023-02-01T13:08:41;18.25;;;2.47;;
64033;SDS011;50280;49.864;8.638;2023-02-01T13:11:28;9.95;;;2.42;;
64033;SDS011;50280;49.864;8.638;2023-02-01T13:14:19;9.20;;;1.77;;
64033;SDS011;50280;49.864;8.638;2023-02-01T13:17:05;11.05;;;2.42;;
64033;SDS011;50280;49.864;8.638;2023-02-01T13:19:49;8.75;;;2.25;;
64033;SDS011;50280;49.864;8.638;2023-02-01T13:22:31;6.95;;;2.20;;
64033;SDS011;50280;49.864;8.638;2023-02-01T13:25:11;8.18;;;2.10;;
64033;SDS011;50280;49.864;8.638;2023-02-01T13:28:09;12.05;;;2.70;;
64033;SDS011;50280;49.864;8.638;2023-02-01T13:37:40;10.50;;;2.03;;
64033;SDS011;50280;49.864;8.638;2023-02-01T13:40:41;9.70;;;1.75;;
64033;SDS011;50280;49.864;8.638;2023-02-01T13:43:24;6.55;;;1.70;;
64033;SDS011;50280;49.864;8.638;2023-02-01T13:46:04;12.70;;;2.40;;
64033;SDS011;50280;49.864;8.638;2023-02-01T13:48:46;9.23;;;1.60;;
64033;SDS011;50280;49.864;8.638;2023-02-01T13:51:35;9.57;;;1.80;;
64033;SDS011;50280;49.864;8.638;2023-02-01T13:57:15;8.88;;;1.77;;
64033;SDS011;50280;49.864;8.638;2023-02-01T14:00:22;7.97;;;1.83;;
64033;SDS011;50280;49.864;8.638;2023-02-01T14:03:11;11.30;;;2.00;;
64033;SDS011;50280;49.864;8.638;2023-02-01T14:06:01;6.13;;;2.00;;
64033;SDS011;50280;49.864;8.638;2023-02-01T14:09:14;9.88;;;1.75;;
64033;SDS011;50280;49.864;8.638;2023-02-01T14:15:21;8.35;;;2.15;;
64033;SDS011;50280;49.864;8.638;2023-02-01T14:17:58;8.68;;;2.17;;
64033;SDS011;50280;49.864;8.638;2023-02-01T14:23:16;8.75;;;2.50;;
64033;SDS011;50280;49.864;8.638;2023-02-01T14:28:57;10.98;;;2.42;;
64033;SDS011;50280;49.864;8.638;2023-02-01T14:31:44;7.45;;;1.73;;
64033;SDS011;50280;49.864;8.638;2023-02-01T14:34:31;8.57;;;2.30;;
64033;SDS011;50280;49.864;8.638;2023-02-01T14:37:13;8.52;;;2.05;;
64033;SDS011;50280;49.864;8.638;2023-02-01T14:40:03;7.43;;;1.48;;
